createdAt,value
2018-07-07T00:08:05.111Z,7.07
2018-07-07T04:57:35.033Z,8.27
2018-07-07T05:00:06.411Z,7.53
2018-07-07T05:03:15.249Z,7.67
2018-07-07T05:09:56.841Z,7.13
2018-07-07T05:16:26.880Z,6.20
2018-07-07T05:19:00.264Z,6.63
2018-07-07T05:21:33.104Z,5.80
2018-07-07T05:24:07.860Z,5.00
2018-07-07T05:26:39.438Z,5.50
2018-07-07T05:29:08.202Z,4.83
2018-07-07T05:31:38.867Z,4.67
2018-07-07T05:34:07.324Z,4.37
2018-07-07T05:36:37.226Z,4.73
2018-07-07T05:39:06.397Z,5.07
2018-07-07T05:41:35.535Z,3.63
2018-07-07T05:44:03.672Z,4.27
2018-07-07T05:46:32.004Z,4.30
2018-07-07T05:49:02.727Z,4.60
2018-07-07T05:54:10.053Z,4.40
2018-07-07T05:56:42.843Z,3.80
2018-07-07T05:59:13.841Z,4.63
2018-07-07T06:02:00.186Z,5.00
2018-07-07T06:04:32.411Z,4.80
2018-07-07T06:10:20.050Z,4.10
2018-07-07T06:12:54.097Z,4.60
2018-07-07T06:15:25.081Z,4.40
2018-07-07T06:17:57.274Z,4.10
2018-07-07T06:20:26.110Z,4.90
2018-07-07T06:22:56.953Z,4.53
2018-07-07T06:31:18.372Z,5.97
2018-07-07T06:33:49.213Z,5.90
2018-07-07T06:36:24.071Z,6.33
2018-07-07T06:43:19.594Z,5.50
2018-07-07T06:49:42.695Z,6.97
2018-07-07T06:58:08.156Z,6.50
2018-07-07T07:00:45.186Z,7.40
2018-07-07T07:06:57.444Z,7.10
2018-07-07T07:18:50.547Z,7.70
2018-07-07T07:21:26.284Z,7.00
2018-07-07T07:29:24.129Z,7.63
2018-07-07T07:43:45.031Z,6.63
2018-07-07T07:56:22.943Z,7.40
2018-07-07T07:58:54.968Z,7.60
2018-07-07T08:01:32.627Z,8.00
2018-07-07T08:04:03.974Z,7.50
2018-07-07T08:06:32.205Z,7.60
2018-07-07T08:09:00.524Z,7.73
2018-07-07T08:11:29.754Z,7.00
2018-07-07T08:13:57.947Z,7.37
2018-07-07T08:16:26.170Z,6.53
2018-07-07T08:18:55.493Z,7.20
2018-07-07T08:21:24.445Z,6.63
2018-07-07T08:23:53.587Z,7.87
2018-07-07T08:26:21.840Z,6.57
2018-07-07T08:28:50.766Z,6.57
2018-07-07T08:31:18.963Z,6.30
2018-07-07T08:33:47.172Z,7.67
2018-07-07T08:36:15.481Z,6.33
2018-07-07T08:38:44.934Z,6.30
2018-07-07T08:41:28.877Z,6.67
2018-07-07T08:43:58.861Z,7.27
2018-07-07T08:46:34.197Z,6.87
2018-07-07T08:49:04.504Z,6.43
2018-07-07T08:51:39.224Z,7.00
2018-07-07T08:54:13.826Z,6.50
2018-07-07T08:56:53.431Z,6.50
2018-07-07T08:59:24.070Z,7.07
2018-07-07T09:01:53.066Z,6.33
2018-07-07T09:04:21.285Z,7.90
2018-07-07T09:06:49.540Z,6.70
2018-07-07T09:09:17.783Z,6.37
2018-07-07T09:11:46.023Z,6.90
2018-07-07T09:14:14.264Z,6.93
2018-07-07T09:16:42.519Z,6.83
2018-07-07T09:19:10.755Z,7.17
2018-07-07T09:24:19.713Z,6.60
2018-07-07T09:26:59.709Z,6.00
2018-07-07T09:29:37.757Z,6.57
2018-07-07T09:32:12.139Z,6.37
2018-07-07T09:34:42.050Z,6.50
2018-07-07T09:37:12.191Z,5.60
2018-07-07T09:39:48.144Z,6.97
2018-07-07T09:42:32.829Z,5.90
2018-07-07T09:45:06.463Z,6.23
2018-07-07T09:47:36.143Z,5.40
2018-07-07T09:50:12.930Z,4.90
2018-07-07T09:52:43.652Z,4.70
2018-07-07T09:55:12.998Z,5.33
2018-07-07T09:57:48.615Z,4.73
2018-07-07T10:00:27.546Z,4.40
2018-07-07T10:02:59.899Z,4.10
2018-07-07T10:05:28.234Z,4.60
2018-07-07T10:07:58.639Z,4.57
2018-07-07T10:10:33.274Z,4.50
2018-07-07T10:13:04.450Z,4.00
2018-07-07T10:15:37.262Z,4.50
2018-07-07T10:18:12.637Z,4.73
2018-07-07T10:20:41.675Z,6.63
2018-07-07T10:23:11.022Z,4.60
2018-07-07T10:25:39.379Z,3.70
2018-07-07T10:28:07.857Z,3.53
2018-07-07T10:30:36.420Z,3.83
2018-07-07T10:33:06.008Z,3.47
2018-07-07T10:35:35.507Z,3.23
2018-07-07T10:38:03.952Z,4.23
2018-07-07T10:40:32.288Z,4.00
2018-07-07T10:43:00.611Z,3.53
2018-07-07T10:45:47.368Z,3.40
2018-07-07T10:51:00.817Z,4.40
2018-07-07T10:53:30.272Z,3.43
2018-07-07T10:56:08.144Z,3.80
2018-07-07T10:59:12.275Z,3.60
2018-07-07T11:01:47.390Z,4.00
2018-07-07T11:04:18.995Z,3.30
2018-07-07T11:07:00.734Z,3.07
2018-07-07T11:09:33.105Z,3.70
2018-07-07T11:12:07.386Z,3.63
2018-07-07T11:14:42.157Z,3.63
2018-07-07T11:17:12.007Z,3.30
2018-07-07T11:19:40.456Z,3.33
2018-07-07T11:22:14.353Z,2.87
2018-07-07T11:24:53.297Z,3.40
2018-07-07T11:27:24.679Z,3.10
2018-07-07T11:30:01.207Z,3.20
2018-07-07T11:32:35.534Z,2.93
2018-07-07T11:35:07.656Z,2.97
2018-07-07T11:37:43.239Z,3.80
2018-07-07T11:40:16.736Z,3.90
2018-07-07T11:42:57.718Z,3.80
2018-07-07T11:45:30.316Z,3.50
2018-07-07T11:48:02.501Z,3.13
2018-07-07T11:50:34.395Z,3.10
2018-07-07T11:53:03.666Z,2.67
2018-07-07T11:55:32.558Z,2.77
2018-07-07T11:58:01.669Z,2.80
2018-07-07T12:00:32.613Z,2.97
2018-07-07T12:03:01.433Z,2.97
2018-07-07T12:05:31.317Z,2.67
2018-07-07T12:08:13.783Z,3.20
2018-07-07T12:10:35.058Z,2.50
2018-07-07T12:13:03.518Z,3.13
2018-07-07T12:15:37.600Z,2.20
2018-07-07T12:18:11.067Z,3.00
2018-07-07T12:20:49.560Z,2.30
2018-07-07T12:23:33.736Z,2.63
2018-07-07T12:26:17.833Z,2.30
2018-07-07T12:28:48.614Z,2.53
2018-07-07T12:31:26.817Z,2.93
2018-07-07T12:34:02.820Z,2.70
2018-07-07T12:36:48.126Z,2.47
2018-07-07T12:42:09.154Z,3.13
2018-07-07T12:44:50.854Z,2.60
2018-07-07T12:47:37.501Z,1.90
2018-07-07T12:50:07.457Z,2.23
2018-07-07T12:52:36.936Z,2.40
2018-07-07T12:55:05.289Z,2.20
2018-07-07T12:57:33.626Z,2.10
2018-07-07T13:00:02.297Z,1.83
2018-07-07T13:02:35.068Z,2.00
2018-07-07T13:05:09.302Z,2.10
2018-07-07T13:07:43.085Z,2.07
2018-07-07T13:10:12.843Z,1.90
2018-07-07T13:12:44.703Z,2.07
2018-07-07T13:17:54.340Z,1.90
2018-07-07T13:20:25.050Z,2.20
2018-07-07T13:22:54.791Z,2.50
2018-07-07T13:25:25.484Z,2.73
2018-07-07T13:27:57.977Z,2.50
2018-07-07T13:30:29.732Z,2.60
2018-07-07T13:32:58.233Z,2.60
2018-07-07T13:35:28.714Z,3.13
2018-07-07T13:37:58.432Z,2.27
2018-07-07T13:40:28.359Z,3.23
2018-07-07T13:43:02.033Z,2.47
2018-07-07T13:45:32.028Z,2.60
2018-07-07T13:48:03.860Z,2.50
2018-07-07T13:50:34.422Z,2.53
2018-07-07T13:53:05.509Z,2.40
2018-07-07T13:55:38.470Z,2.77
2018-07-07T13:58:09.810Z,2.20
2018-07-07T14:01:01.281Z,2.47
2018-07-07T14:03:35.705Z,2.60
2018-07-07T14:06:19.108Z,2.77
2018-07-07T14:08:58.265Z,3.00
2018-07-07T14:11:35.354Z,2.70
2018-07-07T14:14:20.289Z,2.50
2018-07-07T14:19:32.881Z,2.70
2018-07-07T14:22:08.610Z,2.43
2018-07-07T14:24:49.177Z,2.73
2018-07-07T14:27:27.680Z,2.30
2018-07-07T14:30:15.780Z,2.87
2018-07-07T14:33:05.928Z,2.53
2018-07-07T14:35:44.669Z,2.73
2018-07-07T14:38:22.765Z,3.00
2018-07-07T14:41:18.148Z,2.57
2018-07-07T14:44:12.089Z,2.63
2018-07-07T14:46:45.629Z,2.87
2018-07-07T14:49:22.503Z,2.40
2018-07-07T14:51:57.610Z,2.20
2018-07-07T14:54:34.796Z,2.40
2018-07-07T14:59:45.423Z,2.50
2018-07-07T15:02:16.417Z,2.33
2018-07-07T15:04:50.316Z,2.50
2018-07-07T15:07:23.663Z,2.67
2018-07-07T15:09:56.915Z,2.40
2018-07-07T15:12:25.133Z,2.50
2018-07-07T15:14:54.269Z,2.50
2018-07-07T15:17:29.928Z,2.40
2018-07-07T15:20:07.460Z,2.90
2018-07-07T15:22:42.517Z,3.40
2018-07-07T15:25:18.590Z,2.33
2018-07-07T15:28:03.769Z,2.40
2018-07-07T15:30:42.667Z,2.70
2018-07-07T15:33:12.042Z,2.30
2018-07-07T15:35:40.487Z,2.67
2018-07-07T15:38:09.077Z,2.50
2018-07-07T15:40:37.561Z,2.30
2018-07-07T15:43:05.718Z,2.57
2018-07-07T15:45:33.889Z,2.60
2018-07-07T15:48:02.102Z,2.10
2018-07-07T15:50:30.215Z,2.40
2018-07-07T15:52:58.658Z,2.43
2018-07-07T15:55:26.847Z,3.13
2018-07-07T15:57:55.022Z,2.73
2018-07-07T16:00:23.181Z,3.30
2018-07-07T16:02:51.463Z,3.27
2018-07-07T16:05:19.742Z,3.17
2018-07-07T16:07:47.961Z,3.10
2018-07-07T16:10:15.917Z,2.70
2018-07-07T16:12:44.138Z,2.73
2018-07-07T16:15:12.375Z,2.90
2018-07-07T16:17:40.566Z,3.20
2018-07-07T16:20:08.786Z,3.27
2018-07-07T16:22:37.130Z,3.50
2018-07-07T16:25:05.380Z,2.90
2018-07-07T16:27:33.616Z,3.00
2018-07-07T16:30:01.878Z,2.97
2018-07-07T16:32:30.142Z,2.60
2018-07-07T16:34:58.449Z,3.40
2018-07-07T16:37:26.730Z,3.23
2018-07-07T16:39:55.014Z,3.47
2018-07-07T16:42:23.435Z,3.77
2018-07-07T16:44:51.668Z,3.53
2018-07-07T16:47:19.898Z,3.47
2018-07-07T16:49:48.172Z,4.00
2018-07-07T16:52:16.450Z,3.60
2018-07-07T16:54:44.715Z,3.20
2018-07-07T16:57:14.551Z,3.50
2018-07-07T16:59:42.929Z,3.73
2018-07-07T17:02:11.219Z,3.40
2018-07-07T17:04:39.430Z,3.30
2018-07-07T17:07:07.648Z,4.13
2018-07-07T17:09:35.890Z,4.20
2018-07-07T17:12:03.861Z,3.50
2018-07-07T17:14:32.146Z,3.57
2018-07-07T17:17:00.459Z,3.83
2018-07-07T17:19:28.753Z,3.73
2018-07-07T17:21:57.150Z,3.23
2018-07-07T17:24:27.443Z,3.70
2018-07-07T17:26:56.088Z,3.90
2018-07-07T17:29:24.392Z,3.53
2018-07-07T17:31:52.991Z,4.37
2018-07-07T17:34:21.250Z,4.23
2018-07-07T17:36:49.553Z,4.10
2018-07-07T17:39:17.829Z,4.50
2018-07-07T17:41:46.934Z,4.37
2018-07-07T17:44:15.623Z,4.10
2018-07-07T17:46:43.873Z,4.03
2018-07-07T17:49:12.341Z,3.87
2018-07-07T17:51:41.314Z,4.17
2018-07-07T17:54:09.628Z,4.60
2018-07-07T17:56:37.858Z,4.77
2018-07-07T17:59:06.105Z,4.67
2018-07-07T18:01:35.008Z,4.20
2018-07-07T18:04:03.318Z,4.60
2018-07-07T18:06:31.590Z,4.70
2018-07-07T18:08:59.865Z,4.20
2018-07-07T18:11:28.168Z,4.17
2018-07-07T18:13:56.149Z,4.70
2018-07-07T18:16:24.394Z,4.23
2018-07-07T18:18:52.639Z,3.50
2018-07-07T18:21:20.921Z,4.37
2018-07-07T18:23:49.131Z,4.07
2018-07-07T18:26:17.344Z,4.90
2018-07-07T18:28:45.599Z,4.33
2018-07-07T18:31:14.045Z,5.00
2018-07-07T18:33:42.324Z,4.70
2018-07-07T18:36:10.582Z,5.50
2018-07-07T18:38:38.850Z,5.13
2018-07-07T18:41:07.102Z,5.07
2018-07-07T18:43:35.350Z,4.60
2018-07-07T18:46:03.610Z,4.30
2018-07-07T18:48:31.847Z,4.60
2018-07-07T18:51:00.158Z,4.40
2018-07-07T18:53:28.395Z,4.27
2018-07-07T18:55:56.994Z,4.70
2018-07-07T18:58:26.242Z,4.40
2018-07-07T19:00:54.456Z,4.93
2018-07-07T19:03:22.685Z,5.37
2018-07-07T19:05:50.847Z,5.50
2018-07-07T19:08:19.035Z,5.43
2018-07-07T19:10:47.197Z,6.17
2018-07-07T19:13:15.404Z,7.50
2018-07-07T19:15:46.093Z,6.07
2018-07-07T19:18:14.482Z,5.80
2018-07-07T19:20:47.925Z,6.40
2018-07-07T19:23:21.390Z,6.20
2018-07-07T19:25:55.274Z,6.17
2018-07-07T19:28:23.472Z,5.93
2018-07-07T19:30:51.612Z,5.93
2018-07-07T19:33:25.186Z,6.77
2018-07-07T19:35:58.661Z,6.63
2018-07-07T19:38:26.834Z,6.90
2018-07-07T19:40:55.015Z,6.83
2018-07-07T19:43:23.271Z,5.90
2018-07-07T19:45:51.430Z,7.00
2018-07-07T19:48:19.626Z,7.43
2018-07-07T19:50:47.801Z,7.10
2018-07-07T19:53:15.959Z,10.37
2018-07-07T19:55:44.247Z,8.37
2018-07-07T19:58:12.441Z,9.10
2018-07-07T20:00:40.603Z,8.87
2018-07-07T20:03:09.179Z,8.00
2018-07-07T20:05:37.422Z,7.97
2018-07-07T20:08:05.654Z,7.70
2018-07-07T20:10:33.900Z,7.17
2018-07-07T20:13:02.126Z,7.00
2018-07-07T20:15:35.539Z,6.30
2018-07-07T20:18:05.841Z,7.37
2018-07-07T20:20:39.526Z,7.87
2018-07-07T20:23:08.993Z,7.27
2018-07-07T20:25:37.215Z,7.60
2018-07-07T20:28:11.074Z,8.30
2018-07-07T20:30:39.313Z,7.93
2018-07-07T20:33:07.809Z,6.80
2018-07-07T20:35:36.049Z,6.73
2018-07-07T20:38:04.267Z,8.40
2018-07-07T20:40:32.514Z,9.10
2018-07-07T20:43:00.749Z,9.83
2018-07-07T20:45:28.949Z,8.57
2018-07-07T20:47:57.167Z,7.60
2018-07-07T20:50:25.361Z,8.90
2018-07-07T20:52:53.586Z,8.13
2018-07-07T20:55:21.797Z,8.00
2018-07-07T20:57:50.010Z,7.97
2018-07-07T21:00:18.230Z,8.40
2018-07-07T21:02:46.438Z,7.70
2018-07-07T21:05:14.637Z,8.10
2018-07-07T21:07:42.854Z,8.07
2018-07-07T21:10:11.080Z,8.10
2018-07-07T21:12:39.345Z,6.87
2018-07-07T21:15:07.554Z,6.87
2018-07-07T21:17:35.775Z,7.93
2018-07-07T21:20:04.104Z,8.10
2018-07-07T21:22:32.335Z,8.57
2018-07-07T21:25:06.843Z,7.80
2018-07-07T21:27:35.055Z,6.93
2018-07-07T21:30:03.278Z,8.40
2018-07-07T21:32:31.509Z,7.80
2018-07-07T21:34:59.737Z,7.50
2018-07-07T21:37:27.947Z,8.60
2018-07-07T21:39:56.136Z,8.60
2018-07-07T21:42:24.350Z,8.03
2018-07-07T21:44:52.799Z,7.70
2018-07-07T21:47:21.042Z,8.70
2018-07-07T21:49:49.311Z,8.20
2018-07-07T21:52:17.582Z,7.60
2018-07-07T21:54:45.788Z,8.07
2018-07-07T21:57:19.281Z,7.53
2018-07-07T21:59:47.487Z,8.20
2018-07-07T22:02:21.021Z,8.23
2018-07-07T22:04:54.490Z,7.80
2018-07-07T22:07:28.101Z,7.80
2018-07-07T22:09:56.271Z,7.53
2018-07-07T22:12:24.429Z,7.83
2018-07-07T22:14:52.575Z,7.93
2018-07-07T22:17:20.743Z,7.33
2018-07-07T22:22:54.305Z,7.80
2018-07-07T22:25:22.496Z,8.03
2018-07-07T22:27:50.668Z,7.70
2018-07-07T22:30:18.852Z,8.40
2018-07-07T22:32:47.052Z,6.93
2018-07-07T22:35:20.548Z,7.63
2018-07-07T22:37:48.736Z,6.70
2018-07-07T22:40:16.913Z,7.47
2018-07-07T22:42:45.069Z,8.60
2018-07-07T22:45:13.293Z,9.47
2018-07-07T22:47:41.471Z,8.27
2018-07-07T22:50:09.646Z,7.93
2018-07-07T22:52:37.859Z,7.50
2018-07-07T22:55:06.035Z,7.80
2018-07-07T22:57:34.222Z,8.03
2018-07-07T23:00:02.423Z,8.20
2018-07-07T23:02:30.581Z,7.47
2018-07-07T23:04:58.830Z,8.60
2018-07-07T23:07:27.060Z,7.23
2018-07-07T23:09:55.309Z,7.20
2018-07-07T23:12:23.538Z,7.60
2018-07-07T23:14:51.778Z,8.97
2018-07-07T23:17:20.051Z,8.50
2018-07-07T23:19:48.282Z,8.60
2018-07-07T23:22:28.363Z,8.53
2018-07-07T23:24:56.581Z,7.33
2018-07-07T23:27:24.802Z,8.97
2018-07-07T23:29:53.012Z,8.53
2018-07-07T23:32:21.298Z,7.90
2018-07-07T23:34:49.509Z,7.60
2018-07-07T23:37:17.726Z,7.33
2018-07-07T23:39:45.967Z,8.43
2018-07-07T23:42:14.210Z,8.70
2018-07-07T23:44:42.462Z,9.20
2018-07-07T23:47:10.722Z,8.43
2018-07-07T23:49:38.952Z,8.10
2018-07-07T23:52:07.200Z,8.13
2018-07-07T23:54:35.433Z,7.63
2018-07-07T23:57:03.647Z,8.03
2018-07-07T23:59:31.879Z,8.47
